メインページ
METAR-TAF:

METAR-TAF

空港 :

トロイ, ミシガン州, アメリカ合衆国

緯度: 42-32-35N, 経度: 083-10-40W, 海抜: 222m

現時点の気象観測

当レポートは18分前の19:19(UTC)に作成
南西の風 8kt
気温 30°C
湿度 70%
気圧 1012 hPa
視程: 16.1km
高度2400ftの雲は散在している
高度3000ftの雲は散在している
高度6000ftの千切れ雲あり

METAR: KVLL 191919Z AUTO 22008KT 10SM SCT024 SCT030 BKN060 30/24 A2988 RMK AO2 T03020237

時間: 15:37 (19:37 UTC)


TAF: 見つかりません

4,000以上の空港の気象観測と天気予報(METAR報とTAF報)

利用可能な観測所は地図上に黄色い丸と赤い丸で示す。

丸の上にカーソルを重ねると観測所名を参照できる。

次にクリックすると気象観測と天気予報を参照できる。

マップの切り替え:黒色「×」印の緑ボタンをクリックして拡大、「-」印の緑ボタンをクリックして縮小、緑色の三角印をクリックして隣りの地図に切り替え


METAR-TAF: